Hakon Mosby — LJIT — position and weather

sailwx.info

Track history (hours):
 
Tides and Currents Weather Stations Pressure Air Temp Water Temp Dewpoint Dewpoint Depression Visibility Wind Speed Wind Dir Waves Ship Positions

Oceanographic research ship Hakon Mosby (Norway)

Detailed information on ship capabilities available from University of Delaware's Ocean Information Center and ARCUS's ALIAS (Arctic Logistics Information and Support) project.

Last reported at 2015-Mar-06 07:00 UTC. Time now 2015-Mar-06 09:07 UTC.
Position N 60°18' E 005°18'.

Type: Dredging. MMSI: 258244000.

Wind from 160 at 4 knots

Barometer 1021.8 mb
Air temperature 6.1 ° C
Dewpoint 3.4 ° C
Water temperature 6.2 ° C

Date/timePositionNaut miles runAvg speedWind from/ knotsBaromVisibWave heightAir tempDewpointWater temp
2015-Mar-06 07:00N 60°18' E 005°18'0 0.0 160 / 41021.8 6.1 3.4 6.2
2015-Mar-06 06:00N 60°18' E 005°18'0 0.0 160 / 21021.7 6.1 3.0 6.3
2015-Mar-06 05:00N 60°18' E 005°18'0 0.0 200 / 21021.2 6.3 3.0 6.3
2015-Mar-06 03:00N 60°18' E 005°18'0 0.0 300 / 21020.7 6.6 3.3 6.2
2015-Mar-06 00:00N 60°18' E 005°18'0 0.0 310 / 41019.8 7.3 4.9 6.1
2015-Mar-05 22:00N 60°18' E 005°18'0 0.0 250 / 21019.0 7.1 5.3 6.3
2015-Mar-05 21:00N 60°18' E 005°18'0 0.0 170 / 41018.7 7.1 5.4 6.3
2015-Mar-05 19:00N 60°18' E 005°18'0 0.0 160 / 101019.2 7.0 4.9 6.3
2015-Mar-05 18:00N 60°18' E 005°18'0 0.0 160 / 81019.5 6.6 4.8 6.2
2015-Mar-05 16:00N 60°18' E 005°18'0 0.0 160 / 121019.6 6.6 4.6 6.2
2015-Mar-05 15:00N 60°18' E 005°18'0 0.0 160 / 101020.3 5.5 3.8 6.3
2015-Mar-05 13:00N 60°18' E 005°18'0 0.0 160 / 141021.2 4.4 2.4 6.1
2015-Mar-05 12:00N 60°18' E 005°18'0 0.0 150 / 141022.1 3.7 1.5 5.9
2015-Mar-05 10:00N 60°18' E 005°18'0 0.0 160 / 121023.3 2.7 0.7 5.6
2015-Mar-05 09:00N 60°18' E 005°18'0 0.0 160 / 101024.0 2.8 0.7 5.5
2015-Mar-05 06:00N 60°18' E 005°18'0 0.0 150 / 81024.5 3.2 0.9 5.3
2015-Mar-05 04:00N 60°18' E 005°18'0 0.0 140 / 81025.0 3.2 0.6 5.1
2015-Mar-05 03:00N 60°18' E 005°18'0 0.0 150 / 61025.0 2.9-22.1 5.0
2015-Mar-05 00:00N 60°18' E 005°18'0 0.0 170 / 41024.3 2.7 0.4 4.9
2015-Mar-04 23:00N 60°18' E 005°18'0 0.0 160 / 41024.0 2.7 0.4 4.6
2015-Mar-04 22:00N 60°18' E 005°18'0 0.0 160 / 41023.2 3.0 0.5 5.1
2015-Mar-04 21:00N 60°18' E 005°18'0 0.0 130 / 21022.7 2.8 0.3 5.1
2015-Mar-04 19:00N 60°18' E 005°18'0 0.0 150 / 41021.6 3.0 0.4 5.1
2015-Mar-04 18:00N 60°18' E 005°18'0 0.0 170 / 21020.7 2.7-0.0 5.1
2015-Mar-04 17:00N 60°18' E 005°18'0 0.0 150 / 41019.7 3.6 0.6 5.1
2015-Mar-04 16:00N 60°18' E 005°18'0 0.0 150 / 41019.2 4.0 0.3 5.0
2015-Mar-04 15:00N 60°18' E 005°18'0 0.0 160 / 41018.1 4.5 0.6 4.9
2015-Mar-04 13:00N 60°18' E 005°18'0 0.0 180 / 41016.0 5.6-0.4 5.1
2015-Mar-04 12:00N 60°18' E 005°18'0 0.0 150 / 2 5.0-0.7 5.0
2015-Mar-04 10:00N 60°18' E 005°18'0 0.0 1012.7 2.6-0.8 5.4
2015-Mar-04 08:00N 60°18' E 005°18'0 0.0 240 / 21010.2 1.5-0.7 5.5
2015-Mar-04 07:00N 60°18' E 005°18'0 0.0 210 / 21009.0 0.7-1.6 5.3
2015-Mar-04 06:00N 60°18' E 005°18'0 0.0 180 / 21007.6 0.6-2.0 5.3
2015-Mar-04 03:00N 60°18' E 005°18'0 0.0 130 / 41004.7 2.1-1.4 6.0
2015-Mar-04 01:00N 60°18' E 005°18'0 0.0 160 / 61003.7 2.2-1.3 6.1
2015-Mar-04 00:00N 60°18' E 005°18'0 0.0 140 / 61003.5 2.2-1.2 6.1
2015-Mar-03 23:00N 60°18' E 005°18'0 0.0 150 / 61003.1 2.0-1.3 6.1
2015-Mar-03 21:00N 60°18' E 005°18'0 0.0 150 / 41002.6 1.6-0.7 6.2
2015-Mar-03 20:00N 60°18' E 005°18'0 0.0 150 / 81002.3 1.5-0.6 6.1
2015-Mar-03 18:00N 60°18' E 005°18'0 0.0 140 / 61001.3 2.6-0.5 6.1
2015-Mar-03 17:00N 60°18' E 005°18'0 0.0 150 / 61001.2 2.6-0.7 6.1
2015-Mar-03 16:00N 60°18' E 005°18'0 0.0 150 / 61000.7 2.6-0.5 6.1
2015-Mar-03 15:00N 60°18' E 005°18'0 0.0 150 / 41000.8 1.6-0.2 6.1
2015-Mar-03 14:00N 60°18' E 005°18'0 0.0 170 / 61000.7 1.6-0.9 6.3
2015-Mar-03 13:00N 60°18' E 005°18'0 0.0 160 / 41000.0 1.8-0.7 6.3
2015-Mar-03 12:00N 60°18' E 005°18'0 0.0 160 / 8999.8 3.0-0.2 6.2
2015-Mar-03 10:00N 60°18' E 005°18'0 0.0 160 / 8998.8 2.8-0.4 6.2
2015-Mar-03 09:00N 60°18' E 005°18'0 0.0 140 / 6998.1 3.0-0.0 6.1
2015-Mar-03 07:00N 60°18' E 005°18'0 0.0 140 / 8997.6 1.1-0.5 5.9
2015-Mar-03 06:00N 60°18' E 005°18'0 0.0 150 / 8997.1 1.6-0.5 6.0
2015-Mar-03 04:00N 60°18' E 005°18'0 0.0 140 / 4996.5 2.7 0.2 6.2
2015-Mar-03 03:00N 60°18' E 005°18'0 0.0 150 / 4996.4 2.5 0.4 6.3
2015-Mar-03 00:00N 60°18' E 005°18'0 0.0 140 / 8994.9 3.2 0.4 6.0
2015-Mar-02 22:00N 60°18' E 005°18'0 0.0 140 / 6994.0 3.1-0.0 5.9
2015-Mar-02 20:00N 60°18' E 005°18'0 0.0 170 / 2993.0 3.1-0.9 6.3
2015-Mar-02 19:00N 60°18' E 005°18'0 0.0 150 / 4992.0 4.4-2.1 6.5
2015-Mar-02 18:00N 60°18' E 005°18'0 0.0 160 / 6991.6 4.6-2.0 6.5
2015-Mar-02 17:00N 60°18' E 005°18'0 0.0 300 / 2990.9 4.9-2.2 6.5
2015-Mar-02 15:00N 60°18' E 005°18'0 0.0 320 / 4989.8 5.7-3.4 6.4
2015-Mar-02 13:00N 60°18' E 005°18'0 0.0 320 / 2988.3 5.6-2.2 6.3
2015-Mar-02 12:00N 60°18' E 005°18'0 0.0 320 / 4987.5 5.1 0.3 6.5
2015-Mar-02 11:00N 60°18' E 005°18'0 0.0 330 / 6986.5 5.0 1.0 6.6
2015-Mar-02 10:00N 60°18' E 005°18'0 0.0 330 / 6985.4 4.5 1.3 6.6
2015-Mar-02 09:00N 60°18' E 005°18'0 0.0 150 / 10984.1 4.4 1.8 6.5
2015-Mar-02 07:00N 60°18' E 005°18'0 0.0 160 / 6981.5 3.7 1.5 6.6
2015-Mar-02 06:00N 60°18' E 005°18'0 0.0 160 / 10980.8 3.4 1.1 6.6
2015-Mar-02 04:00N 60°18' E 005°18'0 0.0 150 / 8980.0 4.0 1.3 6.6
2015-Mar-02 03:00N 60°18' E 005°18'0 0.0 160 / 10979.9 3.7 1.3 6.6
2015-Mar-02 01:00N 60°18' E 005°18'0 0.0 160 / 12979.9 5.4 2.0 6.6
2015-Mar-02 00:00N 60°18' E 005°18'0 0.0 150 / 8979.8 5.4 2.2 6.5
2015-Mar-01 22:00N 60°18' E 005°18'0 0.0 170 / 8979.5 6.1 2.7 6.6
2015-Mar-01 21:00N 60°18' E 005°18'0 0.0 160 / 8979.3 5.5 2.7 6.6
2015-Mar-01 18:00N 60°18' E 005°18'0 0.0 180 / 6 6.6 2.3 6.6
2015-Mar-01 17:00N 60°18' E 005°18'0 0.0 180 / 8976.9 6.8 3.0 6.6
2015-Mar-01 15:00N 60°18' E 005°18'0 0.0 180 / 6974.2 6.3 3.8 6.6
2015-Mar-01 14:00N 60°18' E 005°18'0 0.0 160 / 12972.9 5.9 3.5 6.6
2015-Mar-01 13:00N 60°18' E 005°18'0 0.0 170 / 16971.9 5.1 2.7 6.6
2015-Mar-01 12:00N 60°18' E 005°18'0 0.0 170 / 16971.9 5.8 2.4 6.6
2015-Mar-01 10:00N 60°18' E 005°18'0 0.0 170 / 16971.6 6.8 2.6 6.5
2015-Mar-01 09:00N 60°18' E 005°18'0 0.0 160 / 12972.0 6.3 2.3 6.5
2015-Mar-01 08:00N 60°18' E 005°18'0 0.0 170 / 12972.7 6.3 1.9 6.6
2015-Mar-01 07:00N 60°18' E 005°18'0 0.0 170 / 14973.5 6.8 1.8 6.6
2015-Mar-01 06:00N 60°18' E 005°18'0 0.0 170 / 14974.0 7.0 1.5 6.6
2015-Mar-01 04:00N 60°18' E 005°18'0 0.0 170 / 12977.1 6.5 2.2 6.6
2015-Mar-01 03:00N 60°18' E 005°18'0 0.0 170 / 14979.3 5.9 2.2 6.5
2015-Mar-01 02:00N 60°18' E 005°18'0 0.0 170 / 12981.3 5.5 2.4 6.5
2015-Mar-01 01:00N 60°18' E 005°18'0 0.0 170 / 12983.1 5.6 2.9 6.5
2015-Mar-01 00:00N 60°18' E 005°18'0 0.0 170 / 14984.4 5.7 2.9 6.5
2015-Feb-28 22:00N 60°18' E 005°18'0 0.0 170 / 12987.0 5.9 3.5 6.5
2015-Feb-28 21:00N 60°18' E 005°18'0 0.0 170 / 12988.3 6.0 3.5 6.5
2015-Feb-28 19:00N 60°18' E 005°18'0 0.0 160 / 12991.1 5.8 4.1 6.5
2015-Feb-28 18:00N 60°18' E 005°18'0 0.0 160 / 10992.5 5.9 4.2 6.5
2015-Feb-28 17:00N 60°18' E 005°18'0 0.0 160 / 10993.5 5.9 4.2 6.6
2015-Feb-28 16:00N 60°18' E 005°18'0 0.0 160 / 10994.4 2.3 0.6 6.4
2015-Feb-28 15:00N 60°18' E 005°18'0 0.0 160 / 10995.4 5.3 3.3 6.4
2015-Feb-28 14:00N 60°18' E 005°18'0 0.0 160 / 14996.1 4.8 2.7 6.5
2015-Feb-28 13:00N 60°18' E 005°18'0 0.0 160 / 14996.5 4.8 2.2 6.5
2015-Feb-28 12:00N 60°18' E 005°18'0 0.0 160 / 17997.3 4.6 1.8 6.4
2015-Feb-28 11:00N 60°18' E 005°18'0 0.0 160 / 16998.0 4.3 1.4 6.3
2015-Feb-28 09:00N 60°18' E 005°18'0 0.0 170 / 17999.0 4.3 1.3 6.5
2015-Feb-28 08:00N 60°18' E 005°18'0 0.0 170 / 16999.9 4.1 1.1 6.4
2015-Feb-28 07:00N 60°18' E 005°18'0 0.0 170 / 161000.5 4.6 0.8 6.3
2015-Feb-28 06:00N 60°18' E 005°18'0 0.0 170 / 141001.0 5.4 0.2 6.3
2015-Feb-28 05:00N 60°18' E 005°18'0 0.0 170 / 141001.9 5.3-0.2 6.4
2015-Feb-28 04:00N 60°18' E 005°18'0 0.0 170 / 161003.0 5.4-0.4 6.3
2015-Feb-28 03:00N 60°18' E 005°18'0 0.0 170 / 141004.0 5.4-0.1 6.3
2015-Feb-28 02:00N 60°18' E 005°18'0 0.0 170 / 121004.5 5.4-5.1 6.4
2015-Feb-28 01:00N 60°18' E 005°18'0 0.0 170 / 141005.8 3.6-1.3 6.5
2015-Feb-28 00:00N 60°18' E 005°18'0 0.0 170 / 121006.8 5.3 1.2 6.5
2015-Feb-27 23:00N 60°18' E 005°18'0 0.0 170 / 121007.2 5.3 2.1 6.4
2015-Feb-27 22:00N 60°18' E 005°18'0 0.0 160 / 121007.7 5.4 2.2 6.5
2015-Feb-27 21:00N 60°18' E 005°18'0 0.0 160 / 141007.7 5.7 2.5 6.5
2015-Feb-27 20:00N 60°18' E 005°18'0 0.0 160 / 121007.8 6.0 2.6 6.6
2015-Feb-27 19:00N 60°18' E 005°18'0 0.0 160 / 101008.2 5.9 2.7 6.6
2015-Feb-27 18:00N 60°18' E 005°18'0 0.0 160 / 81008.1 5.7 2.6 6.6
2015-Feb-27 16:00N 60°18' E 005°18'0 0.0 170 / 61007.3 5.8 2.4 6.6
2015-Feb-27 15:00N 60°18' E 005°18'0 0.0 170 / 81006.7 6.3 2.4 6.6
2015-Feb-27 13:00N 60°18' E 005°18'0 0.0 160 / 121006.3 5.3 2.1 6.6
2015-Feb-27 11:00N 60°18' E 005°18'0 0.0 170 / 121005.5 5.3 0.8 6.5
2015-Feb-27 09:00N 60°18' E 005°18'0 0.0 160 / 101005.2 5.0 0.2 6.6
2015-Feb-27 08:00N 60°18' E 005°18'0 0.0 160 / 101004.8 4.2-0.1 6.7
2015-Feb-27 06:00N 60°18' E 005°18'0 0.0 160 / 81004.2 4.0 0.4 6.6
2015-Feb-27 04:00N 60°18' E 005°18'0 0.0 160 / 41003.6 3.7 1.0 6.7
2015-Feb-27 03:00N 60°18' E 005°18'0 0.0 160 / 41003.3 3.7 1.0 6.6
2015-Feb-27 02:00N 60°18' E 005°18'0 0.0 160 / 41003.2 3.7 1.2 6.6
2015-Feb-27 01:00N 60°18' E 005°18'0 0.0 170 / 81003.1 3.8 1.2 6.8
2015-Feb-27 00:00N 60°18' E 005°18'0 0.0 160 / 61002.3 4.0 1.3 6.7
2015-Feb-26 23:00N 60°18' E 005°18'0 0.0 160 / 61002.2 3.7 1.1 6.6
2015-Feb-26 22:00N 60°18' E 005°18'0 0.0 160 / 61001.8 3.7 1.0 6.6
2015-Feb-26 21:00N 60°18' E 005°18'0 0.0 160 / 61001.3 3.6 1.1 6.6
2015-Feb-26 20:00N 60°18' E 005°18'0 0.0 150 / 61000.8 3.4 1.2 6.6
2015-Feb-26 19:00N 60°18' E 005°18'0 0.0 150 / 61000.3 2.9 1.0 6.6
2015-Feb-26 18:00N 60°18' E 005°18'0 0.0 170 / 121000.0 3.6 0.8 6.7
2015-Feb-26 17:00N 60°18' E 005°18'0 0.0 170 / 10998.9 4.0 1.2 6.8
2015-Feb-26 16:00N 60°18' E 005°18'0 0.0 170 / 12998.0 4.0 1.3 6.6
2015-Feb-26 15:00N 60°18' E 005°18'0 0.0 170 / 14997.8 4.1 1.2 6.6
2015-Feb-26 12:00N 60°18' E 005°18'0 0.0 170 / 14998.9 3.5 0.4 6.6
2015-Feb-26 11:00N 60°18' E 005°18'0 0.0 170 / 16999.6 3.5-0.0 6.6
2015-Feb-26 10:00N 60°18' E 005°18'   170 / 161000.2 3.7-0.4 6.6
Track history (hours):
 
Tides and Currents Weather Stations Pressure Air Temp Water Temp Dewpoint Dewpoint Depression Visibility Wind Speed Wind Dir Waves Ship Positions

Oceanographic research ship Hakon Mosby (Norway)

Detailed information on ship capabilities available from University of Delaware's Ocean Information Center and ARCUS's ALIAS (Arctic Logistics Information and Support) project.

Last reported at 2015-Mar-06 07:00 UTC. Time now 2015-Mar-06 09:07 UTC.
Position N 60°18' E 005°18'.

Type: Dredging. MMSI: 258244000.

Wind from 160 at 4 knots

Barometer 1021.8 mb
Air temperature 6.1 ° C
Dewpoint 3.4 ° C
Water temperature 6.2 ° C

Date/timePositionNaut miles runAvg speedWind from/ knotsBaromVisibWave heightAir tempDewpointWater temp
2015-Mar-06 07:00N 60°18' E 005°18'0 0.0 160 / 41021.8 6.1 3.4 6.2
2015-Mar-06 06:00N 60°18' E 005°18'0 0.0 160 / 21021.7 6.1 3.0 6.3
2015-Mar-06 05:00N 60°18' E 005°18'0 0.0 200 / 21021.2 6.3 3.0 6.3
2015-Mar-06 03:00N 60°18' E 005°18'0 0.0 300 / 21020.7 6.6 3.3 6.2
2015-Mar-06 00:00N 60°18' E 005°18'0 0.0 310 / 41019.8 7.3 4.9 6.1
2015-Mar-05 22:00N 60°18' E 005°18'0 0.0 250 / 21019.0 7.1 5.3 6.3
2015-Mar-05 21:00N 60°18' E 005°18'0 0.0 170 / 41018.7 7.1 5.4 6.3
2015-Mar-05 19:00N 60°18' E 005°18'0 0.0 160 / 101019.2 7.0 4.9 6.3
2015-Mar-05 18:00N 60°18' E 005°18'0 0.0 160 / 81019.5 6.6 4.8 6.2
2015-Mar-05 16:00N 60°18' E 005°18'0 0.0 160 / 121019.6 6.6 4.6 6.2
2015-Mar-05 15:00N 60°18' E 005°18'0 0.0 160 / 101020.3 5.5 3.8 6.3
2015-Mar-05 13:00N 60°18' E 005°18'0 0.0 160 / 141021.2 4.4 2.4 6.1
2015-Mar-05 12:00N 60°18' E 005°18'0 0.0 150 / 141022.1 3.7 1.5 5.9
2015-Mar-05 10:00N 60°18' E 005°18'0 0.0 160 / 121023.3 2.7 0.7 5.6
2015-Mar-05 09:00N 60°18' E 005°18'0 0.0 160 / 101024.0 2.8 0.7 5.5
2015-Mar-05 06:00N 60°18' E 005°18'0 0.0 150 / 81024.5 3.2 0.9 5.3
2015-Mar-05 04:00N 60°18' E 005°18'0 0.0 140 / 81025.0 3.2 0.6 5.1
2015-Mar-05 03:00N 60°18' E 005°18'0 0.0 150 / 61025.0 2.9-22.1 5.0
2015-Mar-05 00:00N 60°18' E 005°18'0 0.0 170 / 41024.3 2.7 0.4 4.9
2015-Mar-04 23:00N 60°18' E 005°18'0 0.0 160 / 41024.0 2.7 0.4 4.6
2015-Mar-04 22:00N 60°18' E 005°18'0 0.0 160 / 41023.2 3.0 0.5 5.1
2015-Mar-04 21:00N 60°18' E 005°18'0 0.0 130 / 21022.7 2.8 0.3 5.1
2015-Mar-04 19:00N 60°18' E 005°18'0 0.0 150 / 41021.6 3.0 0.4 5.1
2015-Mar-04 18:00N 60°18' E 005°18'0 0.0 170 / 21020.7 2.7-0.0 5.1
2015-Mar-04 17:00N 60°18' E 005°18'0 0.0 150 / 41019.7 3.6 0.6 5.1
2015-Mar-04 16:00N 60°18' E 005°18'0 0.0 150 / 41019.2 4.0 0.3 5.0
2015-Mar-04 15:00N 60°18' E 005°18'0 0.0 160 / 41018.1 4.5 0.6 4.9
2015-Mar-04 13:00N 60°18' E 005°18'0 0.0 180 / 41016.0 5.6-0.4 5.1
2015-Mar-04 12:00N 60°18' E 005°18'0 0.0 150 / 2 5.0-0.7 5.0
2015-Mar-04 10:00N 60°18' E 005°18'0 0.0 1012.7 2.6-0.8 5.4
2015-Mar-04 08:00N 60°18' E 005°18'0 0.0 240 / 21010.2 1.5-0.7 5.5
2015-Mar-04 07:00N 60°18' E 005°18'0 0.0 210 / 21009.0 0.7-1.6 5.3
2015-Mar-04 06:00N 60°18' E 005°18'0 0.0 180 / 21007.6 0.6-2.0 5.3
2015-Mar-04 03:00N 60°18' E 005°18'0 0.0 130 / 41004.7 2.1-1.4 6.0
2015-Mar-04 01:00N 60°18' E 005°18'0 0.0 160 / 61003.7 2.2-1.3 6.1
2015-Mar-04 00:00N 60°18' E 005°18'0 0.0 140 / 61003.5 2.2-1.2 6.1
2015-Mar-03 23:00N 60°18' E 005°18'0 0.0 150 / 61003.1 2.0-1.3 6.1
2015-Mar-03 21:00N 60°18' E 005°18'0 0.0 150 / 41002.6 1.6-0.7 6.2
2015-Mar-03 20:00N 60°18' E 005°18'0 0.0 150 / 81002.3 1.5-0.6 6.1
2015-Mar-03 18:00N 60°18' E 005°18'0 0.0 140 / 61001.3 2.6-0.5 6.1
2015-Mar-03 17:00N 60°18' E 005°18'0 0.0 150 / 61001.2 2.6-0.7 6.1
2015-Mar-03 16:00N 60°18' E 005°18'0 0.0 150 / 61000.7 2.6-0.5 6.1
2015-Mar-03 15:00N 60°18' E 005°18'0 0.0 150 / 41000.8 1.6-0.2 6.1
2015-Mar-03 14:00N 60°18' E 005°18'0 0.0 170 / 61000.7 1.6-0.9 6.3
2015-Mar-03 13:00N 60°18' E 005°18'0 0.0 160 / 41000.0 1.8-0.7 6.3
2015-Mar-03 12:00N 60°18' E 005°18'0 0.0 160 / 8999.8 3.0-0.2 6.2
2015-Mar-03 10:00N 60°18' E 005°18'0 0.0 160 / 8998.8 2.8-0.4 6.2
2015-Mar-03 09:00N 60°18' E 005°18'0 0.0 140 / 6998.1 3.0-0.0 6.1
2015-Mar-03 07:00N 60°18' E 005°18'0 0.0 140 / 8997.6 1.1-0.5 5.9
2015-Mar-03 06:00N 60°18' E 005°18'0 0.0 150 / 8997.1 1.6-0.5 6.0
2015-Mar-03 04:00N 60°18' E 005°18'0 0.0 140 / 4996.5 2.7 0.2 6.2
2015-Mar-03 03:00N 60°18' E 005°18'0 0.0 150 / 4996.4 2.5 0.4 6.3
2015-Mar-03 00:00N 60°18' E 005°18'0 0.0 140 / 8994.9 3.2 0.4 6.0
2015-Mar-02 22:00N 60°18' E 005°18'0 0.0 140 / 6994.0 3.1-0.0 5.9
2015-Mar-02 20:00N 60°18' E 005°18'0 0.0 170 / 2993.0 3.1-0.9 6.3
2015-Mar-02 19:00N 60°18' E 005°18'0 0.0 150 / 4992.0 4.4-2.1 6.5
2015-Mar-02 18:00N 60°18' E 005°18'0 0.0 160 / 6991.6 4.6-2.0 6.5
2015-Mar-02 17:00N 60°18' E 005°18'0 0.0 300 / 2990.9 4.9-2.2 6.5
2015-Mar-02 15:00N 60°18' E 005°18'0 0.0 320 / 4989.8 5.7-3.4 6.4
2015-Mar-02 13:00N 60°18' E 005°18'0 0.0 320 / 2988.3 5.6-2.2 6.3
2015-Mar-02 12:00N 60°18' E 005°18'0 0.0 320 / 4987.5 5.1 0.3 6.5
2015-Mar-02 11:00N 60°18' E 005°18'0 0.0 330 / 6986.5 5.0 1.0 6.6
2015-Mar-02 10:00N 60°18' E 005°18'0 0.0 330 / 6985.4 4.5 1.3 6.6
2015-Mar-02 09:00N 60°18' E 005°18'0 0.0 150 / 10984.1 4.4 1.8 6.5
2015-Mar-02 07:00N 60°18' E 005°18'0 0.0 160 / 6981.5 3.7 1.5 6.6
2015-Mar-02 06:00N 60°18' E 005°18'0 0.0 160 / 10980.8 3.4 1.1 6.6
2015-Mar-02 04:00N 60°18' E 005°18'0 0.0 150 / 8980.0 4.0 1.3 6.6
2015-Mar-02 03:00N 60°18' E 005°18'0 0.0 160 / 10979.9 3.7 1.3 6.6
2015-Mar-02 01:00N 60°18' E 005°18'0 0.0 160 / 12979.9 5.4 2.0 6.6
2015-Mar-02 00:00N 60°18' E 005°18'0 0.0 150 / 8979.8 5.4 2.2 6.5
2015-Mar-01 22:00N 60°18' E 005°18'0 0.0 170 / 8979.5 6.1 2.7 6.6
2015-Mar-01 21:00N 60°18' E 005°18'0 0.0 160 / 8979.3 5.5 2.7 6.6
2015-Mar-01 18:00N 60°18' E 005°18'0 0.0 180 / 6 6.6 2.3 6.6
2015-Mar-01 17:00N 60°18' E 005°18'0 0.0 180 / 8976.9 6.8 3.0 6.6
2015-Mar-01 15:00N 60°18' E 005°18'0 0.0 180 / 6974.2 6.3 3.8 6.6
2015-Mar-01 14:00N 60°18' E 005°18'0 0.0 160 / 12972.9 5.9 3.5 6.6
2015-Mar-01 13:00N 60°18' E 005°18'0 0.0 170 / 16971.9 5.1 2.7 6.6
2015-Mar-01 12:00N 60°18' E 005°18'0 0.0 170 / 16971.9 5.8 2.4 6.6
2015-Mar-01 10:00N 60°18' E 005°18'0 0.0 170 / 16971.6 6.8 2.6 6.5
2015-Mar-01 09:00N 60°18' E 005°18'0 0.0 160 / 12972.0 6.3 2.3 6.5
2015-Mar-01 08:00N 60°18' E 005°18'0 0.0 170 / 12972.7 6.3 1.9 6.6
2015-Mar-01 07:00N 60°18' E 005°18'0 0.0 170 / 14973.5 6.8 1.8 6.6
2015-Mar-01 06:00N 60°18' E 005°18'0 0.0 170 / 14974.0 7.0 1.5 6.6
2015-Mar-01 04:00N 60°18' E 005°18'0 0.0 170 / 12977.1 6.5 2.2 6.6
2015-Mar-01 03:00N 60°18' E 005°18'0 0.0 170 / 14979.3 5.9 2.2 6.5
2015-Mar-01 02:00N 60°18' E 005°18'0 0.0 170 / 12981.3 5.5 2.4 6.5
2015-Mar-01 01:00N 60°18' E 005°18'0 0.0 170 / 12983.1 5.6 2.9 6.5
2015-Mar-01 00:00N 60°18' E 005°18'0 0.0 170 / 14984.4 5.7 2.9 6.5
2015-Feb-28 22:00N 60°18' E 005°18'0 0.0 170 / 12987.0 5.9 3.5 6.5
2015-Feb-28 21:00N 60°18' E 005°18'0 0.0 170 / 12988.3 6.0 3.5 6.5
2015-Feb-28 19:00N 60°18' E 005°18'0 0.0 160 / 12991.1 5.8 4.1 6.5
2015-Feb-28 18:00N 60°18' E 005°18'0 0.0 160 / 10992.5 5.9 4.2 6.5
2015-Feb-28 17:00N 60°18' E 005°18'0 0.0 160 / 10993.5 5.9 4.2 6.6
2015-Feb-28 16:00N 60°18' E 005°18'0 0.0 160 / 10994.4 2.3 0.6 6.4
2015-Feb-28 15:00N 60°18' E 005°18'0 0.0 160 / 10995.4 5.3 3.3 6.4
2015-Feb-28 14:00N 60°18' E 005°18'0 0.0 160 / 14996.1 4.8 2.7 6.5
2015-Feb-28 13:00N 60°18' E 005°18'0 0.0 160 / 14996.5 4.8 2.2 6.5
2015-Feb-28 12:00N 60°18' E 005°18'0 0.0 160 / 17997.3 4.6 1.8 6.4
2015-Feb-28 11:00N 60°18' E 005°18'0 0.0 160 / 16998.0 4.3 1.4 6.3
2015-Feb-28 09:00N 60°18' E 005°18'0 0.0 170 / 17999.0 4.3 1.3 6.5
2015-Feb-28 08:00N 60°18' E 005°18'0 0.0 170 / 16999.9 4.1 1.1 6.4
2015-Feb-28 07:00N 60°18' E 005°18'0 0.0 170 / 161000.5 4.6 0.8 6.3
2015-Feb-28 06:00N 60°18' E 005°18'0 0.0 170 / 141001.0 5.4 0.2 6.3
2015-Feb-28 05:00N 60°18' E 005°18'0 0.0 170 / 141001.9 5.3-0.2 6.4
2015-Feb-28 04:00N 60°18' E 005°18'0 0.0 170 / 161003.0 5.4-0.4 6.3
2015-Feb-28 03:00N 60°18' E 005°18'0 0.0 170 / 141004.0 5.4-0.1 6.3
2015-Feb-28 02:00N 60°18' E 005°18'0 0.0 170 / 121004.5 5.4-5.1 6.4
2015-Feb-28 01:00N 60°18' E 005°18'0 0.0 170 / 141005.8 3.6-1.3 6.5
2015-Feb-28 00:00N 60°18' E 005°18'0 0.0 170 / 121006.8 5.3 1.2 6.5
2015-Feb-27 23:00N 60°18' E 005°18'0 0.0 170 / 121007.2 5.3 2.1 6.4
2015-Feb-27 22:00N 60°18' E 005°18'0 0.0 160 / 121007.7 5.4 2.2 6.5
2015-Feb-27 21:00N 60°18' E 005°18'0 0.0 160 / 141007.7 5.7 2.5 6.5
2015-Feb-27 20:00N 60°18' E 005°18'0 0.0 160 / 121007.8 6.0 2.6 6.6
2015-Feb-27 19:00N 60°18' E 005°18'0 0.0 160 / 101008.2 5.9 2.7 6.6
2015-Feb-27 18:00N 60°18' E 005°18'0 0.0 160 / 81008.1 5.7 2.6 6.6
2015-Feb-27 16:00N 60°18' E 005°18'0 0.0 170 / 61007.3 5.8 2.4 6.6
2015-Feb-27 15:00N 60°18' E 005°18'0 0.0 170 / 81006.7 6.3 2.4 6.6
2015-Feb-27 13:00N 60°18' E 005°18'0 0.0 160 / 121006.3 5.3 2.1 6.6
2015-Feb-27 11:00N 60°18' E 005°18'0 0.0 170 / 121005.5 5.3 0.8 6.5
2015-Feb-27 09:00N 60°18' E 005°18'0 0.0 160 / 101005.2 5.0 0.2 6.6
2015-Feb-27 08:00N 60°18' E 005°18'0 0.0 160 / 101004.8 4.2-0.1 6.7
2015-Feb-27 06:00N 60°18' E 005°18'0 0.0 160 / 81004.2 4.0 0.4 6.6
2015-Feb-27 04:00N 60°18' E 005°18'0 0.0 160 / 41003.6 3.7 1.0 6.7
2015-Feb-27 03:00N 60°18' E 005°18'0 0.0 160 / 41003.3 3.7 1.0 6.6
2015-Feb-27 02:00N 60°18' E 005°18'0 0.0 160 / 41003.2 3.7 1.2 6.6
2015-Feb-27 01:00N 60°18' E 005°18'0 0.0 170 / 81003.1 3.8 1.2 6.8
2015-Feb-27 00:00N 60°18' E 005°18'0 0.0 160 / 61002.3 4.0 1.3 6.7
2015-Feb-26 23:00N 60°18' E 005°18'0 0.0 160 / 61002.2 3.7 1.1 6.6
2015-Feb-26 22:00N 60°18' E 005°18'0 0.0 160 / 61001.8 3.7 1.0 6.6
2015-Feb-26 21:00N 60°18' E 005°18'0 0.0 160 / 61001.3 3.6 1.1 6.6
2015-Feb-26 20:00N 60°18' E 005°18'0 0.0 150 / 61000.8 3.4 1.2 6.6
2015-Feb-26 19:00N 60°18' E 005°18'0 0.0 150 / 61000.3 2.9 1.0 6.6
2015-Feb-26 18:00N 60°18' E 005°18'0 0.0 170 / 121000.0 3.6 0.8 6.7
2015-Feb-26 17:00N 60°18' E 005°18'0 0.0 170 / 10998.9 4.0 1.2 6.8
2015-Feb-26 16:00N 60°18' E 005°18'0 0.0 170 / 12998.0 4.0 1.3 6.6
2015-Feb-26 15:00N 60°18' E 005°18'0 0.0 170 / 14997.8 4.1 1.2 6.6
2015-Feb-26 12:00N 60°18' E 005°18'0 0.0 170 / 14998.9 3.5 0.4 6.6
2015-Feb-26 11:00N 60°18' E 005°18'0 0.0 170 / 16999.6 3.5-0.0 6.6
2015-Feb-26 10:00N 60°18' E 005°18'   170 / 161000.2 3.7-0.4 6.6

Dump ship's entire track history